Time;durP1;ratioP1;P1;durP2;ratioP2;P2;SDS_P1;SDS_P2;PMS_P1;PMS_P2;Temp;Humidity;BMP_temperature;BMP_pressure;BME280_temperature;BME280_humidity;BME280_pressure;Samples;Min_cycle;Max_cycle;Signal;HPM_P1;HPM_P2
2022/12/02 00:01:38;;;;;;;86.80;21.90;;;;;;;2.33;100.00;148034.16;5022441;28;20117;-61
2022/12/02 00:04:27;;;;;;;100.20;22.83;;;;;;;2.31;100.00;148029.00;5022055;28;20033;-63
2022/12/02 00:06:54;;;;;;;89.37;21.63;;;;;;;2.35;100.00;148039.28;5019982;28;20041;-61
2022/12/02 00:09:30;;;;;;;78.63;19.03;;;;;;;2.35;100.00;148039.28;5021046;28;20048;-61
2022/12/02 00:12:00;;;;;;;87.40;20.63;;;;;;;2.36;100.00;148041.84;5021932;28;20473;-61
2022/12/02 00:14:33;;;;;;;62.37;16.97;;;;;;;2.41;100.00;148053.41;5017862;28;20083;-62
2022/12/02 00:16:58;;;;;;;68.33;19.23;;;;;;;2.49;100.00;148074.00;5028849;28;20171;-63
2022/12/02 00:19:24;;;;;;;71.43;17.47;;;;;;;2.49;100.00;148074.00;5028555;28;20116;-62
2022/12/02 00:21:50;;;;;;;82.20;22.67;;;;;;;2.46;100.00;148066.28;5023419;28;20030;-61
2022/12/02 00:24:16;;;;;;;84.87;23.30;;;;;;;2.41;100.00;148054.69;5025774;28;20022;-63
2022/12/02 00:26:42;;;;;;;90.73;22.90;;;;;;;2.40;100.00;148050.84;5025938;28;20540;-62
2022/12/02 00:29:07;;;;;;;101.47;24.43;;;;;;;2.42;100.00;148055.97;5020112;28;20302;-62
2022/12/02 00:31:33;;;;;;;90.80;20.83;;;;;;;2.40;100.00;148050.84;5020704;28;20028;-61
2022/12/02 00:33:59;;;;;;;93.77;22.63;;;;;;;2.39;100.00;148049.53;5016182;28;20044;-62
2022/12/02 00:36:26;;;;;;;97.33;22.40;;;;;;;2.43;100.00;148058.59;5028041;28;20021;-63
2022/12/02 00:38:51;;;;;;;103.40;24.20;;;;;;;2.38;100.00;148046.97;5023258;28;20033;-62
2022/12/02 00:41:17;;;;;;;77.90;17.53;;;;;;;2.37;100.00;148043.13;5025871;28;20076;-62
2022/12/02 00:46:32;;;;;;;111.50;24.03;;;;;;;2.35;100.00;148040.56;5022880;28;20112;-62
2022/12/02 00:49:09;;;;;;;95.20;22.08;;;;;;;2.33;100.00;148035.44;5018225;28;20104;-62
2022/12/02 00:51:35;;;;;;;91.83;19.97;;;;;;;2.31;100.00;148030.28;5019977;28;20042;-62
2022/12/02 00:54:02;;;;;;;89.33;19.27;;;;;;;2.34;100.00;148036.72;5019778;28;20030;-62
2022/12/02 00:56:27;;;;;;;94.30;23.43;;;;;;;2.29;100.00;148025.09;5028455;28;20030;-62
2022/12/02 00:58:53;;;;;;;103.20;25.40;;;;;;;2.31;100.00;148030.28;5021432;28;20032;-63
2022/12/02 01:01:18;;;;;;;69.53;16.93;;;;;;;2.33;100.00;148035.44;5014050;28;20075;-62
2022/12/02 01:03:43;;;;;;;92.00;22.20;;;;;;;2.34;100.00;148036.72;5017690;28;20104;-62
2022/12/02 01:06:09;;;;;;;79.97;18.93;;;;;;;2.32;100.00;148032.84;5021431;28;20028;-62
2022/12/02 01:08:34;;;;;;;77.90;18.13;;;;;;;2.35;100.00;148039.28;5020902;28;20473;-62
2022/12/02 01:11:00;;;;;;;82.83;22.13;;;;;;;2.38;100.00;148046.97;5028378;28;20036;-62
2022/12/02 01:13:26;;;;;;;90.93;22.13;;;;;;;2.41;100.00;148053.41;5027947;28;20477;-61
2022/12/02 01:15:51;;;;;;;78.60;18.67;;;;;;;2.45;100.00;148063.72;5024873;28;20031;-63
2022/12/02 01:18:17;;;;;;;63.80;15.37;;;;;;;2.46;100.00;148066.28;5029158;28;20017;-61
2022/12/02 01:20:43;;;;;;;68.17;15.73;;;;;;;2.44;100.00;148061.16;5028989;28;20025;-62
2022/12/02 01:23:09;;;;;;;77.70;19.63;;;;;;;2.44;100.00;148062.44;5022197;28;20084;-62
2022/12/02 01:25:34;;;;;;;82.50;20.97;;;;;;;2.49;100.00;148074.00;5031154;28;20048;-62
2022/12/02 01:28:00;;;;;;;87.03;21.20;;;;;;;2.43;100.00;148059.88;5023813;28;20033;-63
2022/12/02 01:30:26;;;;;;;93.90;21.93;;;;;;;2.41;100.00;148054.69;5014889;28;20084;-62
2022/12/02 01:32:51;;;;;;;93.20;21.47;;;;;;;2.39;100.00;148048.25;5013340;28;20057;-62
2022/12/02 01:35:17;;;;;;;82.03;19.27;;;;;;;2.41;100.00;148053.41;5022259;28;20393;-62
2022/12/02 01:37:42;;;;;;;76.90;17.67;;;;;;;2.44;100.00;148062.44;5023752;28;20379;-62
2022/12/02 01:40:09;;;;;;;68.43;17.00;;;;;;;2.41;100.00;148054.69;5021741;28;20422;-62
2022/12/02 01:42:35;;;;;;;71.60;18.70;;;;;;;2.34;100.00;148038.00;5023982;28;20164;-62
2022/12/02 01:45:01;;;;;;;59.87;16.90;;;;;;;2.33;100.00;148035.44;5023102;28;20443;-62
2022/12/02 01:47:27;;;;;;;63.17;14.33;;;;;;;2.42;100.00;148055.97;5022059;28;20039;-62
2022/12/02 01:49:53;;;;;;;72.43;17.33;;;;;;;2.40;100.00;148052.13;5026251;28;20038;-61
2022/12/02 01:52:18;;;;;;;84.57;20.47;;;;;;;2.40;100.00;148050.84;5018647;28;20041;-61
2022/12/02 01:54:44;;;;;;;80.50;21.27;;;;;;;2.46;100.00;148066.28;5017250;28;20388;-62
2022/12/02 01:57:11;;;;;;;86.53;21.00;;;;;;;2.43;100.00;148058.59;5018718;28;20500;-62
2022/12/02 01:59:38;;;;;;;73.83;19.00;;;;;;;2.43;100.00;148058.59;5025342;28;20061;-62
2022/12/02 02:02:27;;;;;;;62.93;15.90;;;;;;;2.46;100.00;148066.28;5023107;28;20074;-64
2022/12/02 02:05:00;;;;;;;54.67;12.40;;;;;;;2.45;100.00;148063.72;5024628;28;20454;-64
2022/12/02 02:07:27;;;;;;;71.53;18.20;;;;;;;2.45;100.00;148065.00;5023067;28;20041;-64
2022/12/02 02:09:54;;;;;;;59.13;14.43;;;;;;;2.53;100.00;148084.25;5017547;28;20121;-64
2022/12/02 02:12:20;;;;;;;57.93;14.40;;;;;;;2.50;100.00;148076.56;5023241;28;20033;-64
2022/12/02 02:14:45;;;;;;;79.83;18.40;;;;;;;2.45;100.00;148065.00;5018316;28;20474;-64
2022/12/02 02:17:11;;;;;;;55.37;12.77;;;;;;;2.45;100.00;148063.72;5022785;28;20500;-64
2022/12/02 02:19:37;;;;;;;54.57;13.03;;;;;;;2.41;100.00;148053.41;5022637;28;20033;-64
2022/12/02 02:22:20;;;;;;;65.50;16.60;;;;;;;2.49;100.00;148074.00;5029107;28;20048;-64
2022/12/02 02:24:46;;;;;;;71.10;18.67;;;;;;;2.45;100.00;148063.72;5036210;28;20025;-64
2022/12/02 02:27:11;;;;;;;56.20;12.80;;;;;;;2.38;100.00;148046.97;5026925;28;20021;-64
2022/12/02 02:29:37;;;;;;;79.73;19.13;;;;;;;2.41;100.00;148054.69;5020760;28;20172;-64
2022/12/02 02:32:03;;;;;;;65.70;16.57;;;;;;;2.37;100.00;148044.41;5023865;28;20549;-64
2022/12/02 02:34:28;;;;;;;70.93;18.00;;;;;;;2.39;100.00;148048.25;5019551;28;20161;-64
2022/12/02 02:36:54;;;;;;;49.67;12.27;;;;;;;2.40;100.00;148050.84;5028669;28;20033;-64
2022/12/02 02:39:21;;;;;;;61.00;15.33;;;;;;;2.50;100.00;148077.84;5013501;28;20030;-64
2022/12/02 02:41:47;;;;;;;66.03;16.47;;;;;;;2.45;100.00;148063.72;5016477;28;20079;-64
2022/12/02 02:44:13;;;;;;;68.70;18.30;;;;;;;2.43;100.00;148058.59;5027923;28;20479;-64
2022/12/02 02:46:38;;;;;;;73.30;17.60;;;;;;;2.35;100.00;148040.56;5016339;28;20481;-64
2022/12/02 02:49:04;;;;;;;70.50;17.87;;;;;;;2.49;100.00;148074.00;5026061;28;20061;-64
2022/12/02 02:51:29;;;;;;;64.07;17.37;;;;;;;2.41;100.00;148053.41;5012550;28;20029;-64
2022/12/02 02:53:55;;;;;;;76.03;15.80;;;;;;;2.34;100.00;148038.00;5025676;28;20452;-64
2022/12/02 02:56:20;;;;;;;62.63;14.53;;;;;;;2.45;100.00;148063.72;5018470;28;20029;-64
2022/12/02 02:58:45;;;;;;;83.37;19.03;;;;;;;2.43;100.00;148059.88;5018464;28;20497;-64
2022/12/02 03:01:25;;;;;;;72.80;15.83;;;;;;;2.45;100.00;148063.72;5018011;28;20030;-64
2022/12/02 03:03:56;;;;;;;100.10;20.17;;;;;;;2.40;100.00;148050.84;5022236;28;20029;-64
2022/12/02 03:06:25;;;;;;;90.18;19.20;;;;;;;2.39;100.00;148049.53;5016128;28;20460;-64
2022/12/02 03:08:51;;;;;;;63.03;14.30;;;;;;;2.35;100.00;148040.56;5020516;28;20091;-63
2022/12/02 03:11:17;;;;;;;76.87;17.77;;;;;;;2.35;100.00;148040.56;5020085;28;20112;-62
2022/12/02 03:13:45;;;;;;;89.83;19.87;;;;;;;2.38;100.00;148046.97;5024010;28;20119;-62
2022/12/02 03:16:13;;;;;;;46.90;11.93;;;;;;;2.38;100.00;148046.97;5026594;28;20041;-62
2022/12/02 03:18:43;;;;;;;86.90;18.43;;;;;;;2.39;100.00;148048.25;5015499;28;20426;-61
2022/12/02 03:21:09;;;;;;;81.57;17.30;;;;;;;2.39;100.00;148048.25;5026107;28;20044;-62
2022/12/02 03:23:35;;;;;;;54.97;13.83;;;;;;;2.41;100.00;148054.69;5021826;28;20072;-61
2022/12/02 03:26:01;;;;;;;57.33;14.10;;;;;;;2.37;100.00;148043.13;5021624;28;20028;-61
2022/12/02 03:28:27;;;;;;;72.57;18.50;;;;;;;2.36;100.00;148041.84;5018018;28;20968;-62
2022/12/02 03:30:53;;;;;;;53.47;11.93;;;;;;;2.35;100.00;148040.56;5027920;28;20056;-64
2022/12/02 03:33:19;;;;;;;64.33;15.30;;;;;;;2.48;100.00;148072.72;5011951;28;20077;-64
2022/12/02 03:35:44;;;;;;;94.40;19.73;;;;;;;2.37;100.00;148044.41;5015126;28;20037;-64
2022/12/02 03:38:10;;;;;;;77.53;18.17;;;;;;;2.37;100.00;148043.13;5012769;28;20955;-64
2022/12/02 03:40:35;;;;;;;82.27;18.07;;;;;;;2.38;100.00;148046.97;5008535;28;20029;-64
2022/12/02 03:43:01;;;;;;;36.67;9.43;;;;;;;2.41;100.00;148053.41;5017464;28;20137;-64
2022/12/02 03:45:27;;;;;;;86.03;20.53;;;;;;;2.43;100.00;148058.59;5019783;28;20026;-64
2022/12/02 03:47:53;;;;;;;51.87;13.03;;;;;;;2.34;100.00;148036.72;5019523;28;20025;-64
2022/12/02 03:50:19;;;;;;;63.60;15.43;;;;;;;2.30;100.00;148027.72;5021055;28;20039;-64
2022/12/02 03:52:44;;;;;;;92.80;20.27;;;;;;;2.35;100.00;148040.56;5014398;28;20045;-64
2022/12/02 03:55:10;;;;;;;74.67;15.93;;;;;;;2.39;100.00;148049.53;5029263;28;20037;-64
2022/12/02 03:57:35;;;;;;;62.27;13.17;;;;;;;2.37;100.00;148043.13;5026580;28;20034;-64
2022/12/02 04:00:01;;;;;;;79.07;17.23;;;;;;;2.34;100.00;148038.00;5026987;28;20466;-64
2022/12/02 04:02:27;;;;;;;82.57;19.53;;;;;;;2.33;100.00;148034.16;5019652;28;20033;-64
2022/12/02 04:04:52;;;;;;;87.80;20.53;;;;;;;2.27;100.00;148018.69;5018077;28;20095;-64
2022/12/02 04:07:18;;;;;;;72.67;16.53;;;;;;;2.30;100.00;148027.72;5023056;28;20087;-64
2022/12/02 04:09:43;;;;;;;67.50;14.70;;;;;;;2.24;100.00;148012.28;5016312;28;20116;-64
2022/12/02 04:12:08;;;;;;;62.97;15.63;;;;;;;2.27;100.00;148019.97;5011805;28;20022;-64
2022/12/02 04:14:34;;;;;;;79.07;18.63;;;;;;;2.19;100.00;147998.16;5023398;28;20037;-64
2022/12/02 04:16:59;;;;;;;64.07;15.77;;;;;;;2.19;100.00;147998.16;5027017;28;20451;-64
2022/12/02 04:19:24;;;;;;;59.90;13.20;;;;;;;2.25;100.00;148014.84;5025806;28;20025;-64
2022/12/02 04:21:50;;;;;;;76.83;17.73;;;;;;;2.25;100.00;148013.56;5016951;28;20032;-64
2022/12/02 04:24:15;;;;;;;72.63;17.60;;;;;;;2.20;100.00;148000.72;5028472;28;20025;-64
2022/12/02 04:26:41;;;;;;;78.27;16.63;;;;;;;2.25;100.00;148014.84;5019693;28;20383;-64
2022/12/02 04:29:06;;;;;;;88.53;20.30;;;;;;;2.22;100.00;148007.13;5031318;28;20033;-64
2022/12/02 04:31:32;;;;;;;80.13;18.57;;;;;;;2.20;100.00;148002.00;5019057;28;20740;-64
2022/12/02 04:33:57;;;;;;;86.93;19.83;;;;;;;2.18;100.00;147995.53;5023293;28;20111;-64
2022/12/02 04:36:23;;;;;;;65.17;14.37;;;;;;;2.19;100.00;147999.44;5022041;28;20044;-64
2022/12/02 04:38:48;;;;;;;68.93;17.13;;;;;;;2.18;100.00;147996.88;5017677;28;20021;-64
2022/12/02 04:41:14;;;;;;;75.10;17.57;;;;;;;2.22;100.00;148005.84;5021269;28;20488;-64
2022/12/02 04:43:39;;;;;;;89.20;20.47;;;;;;;2.25;100.00;148014.84;5022506;28;20487;-64
2022/12/02 04:46:05;;;;;;;72.10;16.47;;;;;;;2.22;100.00;148007.13;5022075;28;20512;-64
2022/12/02 04:48:30;;;;;;;68.43;16.63;;;;;;;2.29;100.00;148025.09;5024846;28;20174;-64
2022/12/02 04:50:55;;;;;;;68.93;15.63;;;;;;;2.26;100.00;148017.41;5025758;28;20079;-64
2022/12/02 04:53:21;;;;;;;79.20;17.53;;;;;;;2.24;100.00;148012.28;5024190;28;20032;-64
2022/12/02 04:55:46;;;;;;;68.03;14.97;;;;;;;2.22;100.00;148007.13;5020161;28;20026;-64
2022/12/02 04:58:13;;;;;;;60.30;14.67;;;;;;;2.23;100.00;148009.69;5023722;28;20033;-64
2022/12/02 05:00:38;;;;;;;77.33;19.40;;;;;;;2.23;100.00;148009.69;5024103;28;20026;-64
2022/12/02 05:03:03;;;;;;;76.40;17.60;;;;;;;2.25;100.00;148014.84;5018238;28;20032;-64
2022/12/02 05:05:29;;;;;;;74.90;16.07;;;;;;;2.18;100.00;147996.88;5021787;28;20145;-64
2022/12/02 05:07:54;;;;;;;72.90;15.80;;;;;;;2.16;100.00;147991.69;5032088;28;20025;-64
2022/12/02 05:10:20;;;;;;;52.83;12.30;;;;;;;2.15;100.00;147987.84;5034583;28;20021;-64
2022/12/02 05:12:45;;;;;;;102.23;21.60;;;;;;;2.16;100.00;147991.69;5022714;28;20092;-64
2022/12/02 05:15:10;;;;;;;89.03;19.03;;;;;;;2.14;100.00;147986.56;5026593;28;20690;-64
2022/12/02 05:17:36;;;;;;;115.83;22.33;;;;;;;2.13;100.00;147983.97;5029291;28;20033;-64
2022/12/02 05:20:01;;;;;;;95.90;20.37;;;;;;;2.07;100.00;147968.59;5021719;28;20068;-64
2022/12/02 05:22:27;;;;;;;115.07;23.17;;;;;;;2.02;100.00;147955.69;5023705;28;20492;-64
2022/12/02 05:24:52;;;;;;;126.23;23.80;;;;;;;2.01;100.00;147953.13;5018994;28;20117;-64
2022/12/02 05:27:17;;;;;;;93.27;18.73;;;;;;;2.03;100.00;147958.25;5026063;28;20034;-64
2022/12/02 05:29:43;;;;;;;71.63;15.30;;;;;;;1.99;100.00;147948.00;5023810;28;20037;-64
2022/12/02 05:32:08;;;;;;;124.57;20.60;;;;;;;1.93;100.00;147932.56;5022612;28;20034;-64
2022/12/02 05:34:33;;;;;;;95.43;18.40;;;;;;;1.96;100.00;147940.31;5028861;28;20026;-64
2022/12/02 05:36:59;;;;;;;111.93;22.03;;;;;;;1.91;100.00;147928.69;5019267;28;20108;-64
2022/12/02 05:39:24;;;;;;;114.83;21.50;;;;;;;1.93;100.00;147932.56;5021027;28;20026;-64
2022/12/02 05:41:51;;;;;;;102.07;20.43;;;;;;;1.96;100.00;147940.31;5016309;28;20022;-64
2022/12/02 05:44:20;;;;;;;86.13;18.67;;;;;;;2.01;100.00;147953.13;5021818;28;20029;-64
2022/12/02 05:46:46;;;;;;;80.23;15.87;;;;;;;1.99;100.00;147949.28;5017418;28;20036;-64
2022/12/02 05:49:22;;;;;;;48.43;11.13;;;;;;;1.93;100.00;147932.56;5035551;28;20032;-64
2022/12/02 05:51:55;;;;;;;62.17;13.43;;;;;;;1.97;100.00;147944.16;5026486;28;20032;-64
2022/12/02 05:54:20;;;;;;;62.00;13.10;;;;;;;1.90;100.00;147926.13;5021881;28;20034;-64
2022/12/02 05:56:46;;;;;;;87.60;20.27;;;;;;;1.93;100.00;147933.84;5017360;28;20044;-64
2022/12/02 05:59:15;;;;;;;74.30;16.17;;;;;;;1.96;100.00;147940.31;5016700;28;20388;-64
2022/12/02 06:01:41;;;;;;;34.57;10.00;;;;;;;1.90;100.00;147924.84;5016585;28;20021;-64
2022/12/02 06:04:17;;;;;;;70.10;17.00;;;;;;;1.95;100.00;147939.00;5023084;28;20030;-64
2022/12/02 06:06:42;;;;;;;71.53;15.97;;;;;;;1.92;100.00;147929.97;5017071;28;20079;-64
2022/12/02 06:09:31;;;;;;;55.50;13.73;;;;;;;1.93;100.00;147933.84;5016528;28;20030;-64
2022/12/02 06:11:57;;;;;;;64.93;15.17;;;;;;;1.96;100.00;147940.31;5017425;28;20025;-64
2022/12/02 06:14:31;;;;;;;49.80;11.63;;;;;;;1.92;100.00;147929.97;5015561;28;20088;-64
2022/12/02 06:17:00;;;;;;;45.27;12.30;;;;;;;1.86;100.00;147914.59;5019081;28;20025;-64
2022/12/02 06:19:26;;;;;;;44.23;12.80;;;;;;;1.86;100.00;147915.88;5017242;28;20436;-64
2022/12/02 06:21:52;;;;;;;25.03;8.40;;;;;;;1.87;100.00;147917.16;5013244;28;20107;-64
2022/12/02 06:24:26;;;;;;;38.40;10.10;;;;;;;1.84;100.00;147909.44;5013297;28;20485;-64
2022/12/02 06:26:52;;;;;;;50.80;13.50;;;;;;;1.84;100.00;147909.44;5025377;28;20052;-64
2022/12/02 06:29:20;;;;;;;42.73;12.00;;;;;;;1.82;100.00;147905.59;5027301;28;20495;-64
2022/12/02 06:31:45;;;;;;;42.10;10.87;;;;;;;1.79;100.00;147897.84;5021863;28;20496;-64
2022/12/02 06:34:30;;;;;;;40.33;12.57;;;;;;;1.84;100.00;147909.44;5022194;28;20026;-64
2022/12/02 06:36:57;;;;;;;36.90;11.37;;;;;;;1.85;100.00;147913.31;5016826;28;20036;-64
2022/12/02 06:39:24;;;;;;;36.30;10.50;;;;;;;1.85;100.00;147912.03;5014816;28;20030;-64
2022/12/02 06:41:50;;;;;;;28.87;8.57;;;;;;;1.81;100.00;147903.00;5017097;28;20028;-64
2022/12/02 06:47:31;;;;;;;16.77;5.57;;;;;;;1.60;100.00;147850.34;5017110;28;20121;-64
2022/12/02 06:49:57;;;;;;;12.43;4.07;;;;;;;1.61;100.00;147852.91;5022864;28;20029;-64
2022/12/02 06:52:22;;;;;;;21.47;5.00;;;;;;;1.57;100.00;147842.59;5015331;28;20493;-64
2022/12/02 06:54:50;;;;;;;14.10;5.00;;;;;;;1.54;100.00;147834.91;5021193;28;20065;-64
2022/12/02 06:57:18;;;;;;;20.93;6.57;;;;;;;1.58;100.00;147845.22;5022321;28;20531;-64
2022/12/02 06:59:47;;;;;;;31.67;9.77;;;;;;;1.56;100.00;147838.75;5025652;28;20020;-64
2022/12/02 07:02:27;;;;;;;31.03;9.47;;;;;;;1.53;100.00;147832.31;5021725;28;20061;-64
2022/12/02 07:04:54;;;;;;;33.37;10.23;;;;;;;1.58;100.00;147845.22;5019388;28;20028;-65
2022/12/02 07:07:27;;;;;;;47.93;12.87;;;;;;;1.57;100.00;147842.59;5020120;28;20022;-65
2022/12/02 07:10:03;;;;;;;52.03;13.33;;;;;;;1.53;100.00;147831.03;5024913;28;20473;-64
2022/12/02 07:12:36;;;;;;;36.07;10.87;;;;;;;1.53;100.00;147832.31;5026675;28;20033;-64
2022/12/02 07:15:25;;;;;;;66.10;16.80;;;;;;;1.49;100.00;147822.06;5025471;28;20071;-64
2022/12/02 07:17:51;;;;;;;45.13;10.37;;;;;;;1.52;100.00;147829.75;5020461;28;20497;-64
2022/12/02 07:20:32;;;;;;;37.03;8.43;;;;;;;1.45;100.00;147811.75;5010645;28;20026;-64
2022/12/02 07:23:16;;;;;;;33.63;9.43;;;;;;;1.44;100.00;147809.19;5019803;28;20025;-64
2022/12/02 07:25:55;;;;;;;35.53;10.33;;;;;;;1.45;100.00;147811.75;5022134;28;20068;-64
2022/12/02 07:28:36;;;;;;;56.77;15.23;;;;;;;1.46;100.00;147814.38;5018877;28;20090;-64
2022/12/02 07:31:23;;;;;;;41.25;12.88;;;;;;;1.49;100.00;147822.06;5021037;28;20026;-64
2022/12/02 07:33:50;;;;;;;50.40;12.63;;;;;;;1.46;100.00;147815.66;5025279;28;20124;-64
2022/12/02 07:36:16;;;;;;;35.57;10.33;;;;;;;1.44;100.00;147809.19;5025686;28;20029;-64
2022/12/02 07:38:41;;;;;;;67.23;15.77;;;;;;;1.44;100.00;147809.19;5019249;28;20026;-64
2022/12/02 07:41:06;;;;;;;56.03;15.60;;;;;;;1.48;100.00;147819.50;5018542;28;20029;-64
2022/12/02 07:43:32;;;;;;;48.17;11.90;;;;;;;1.51;100.00;147825.91;5019817;28;20030;-65
2022/12/02 07:45:58;;;;;;;33.27;8.50;;;;;;;1.45;100.00;147811.75;5018958;28;20018;-64
2022/12/02 07:48:23;;;;;;;47.57;12.83;;;;;;;1.44;100.00;147809.19;5018858;28;20439;-64
2022/12/02 07:50:48;;;;;;;50.47;13.10;;;;;;;1.47;100.00;147816.94;5016097;28;20112;-65
2022/12/02 07:53:14;;;;;;;48.53;11.50;;;;;;;1.50;100.00;147824.63;5026044;28;20028;-64
2022/12/02 07:55:39;;;;;;;39.87;9.57;;;;;;;1.42;100.00;147805.34;5026568;28;20034;-65
2022/12/02 07:58:05;;;;;;;40.80;10.03;;;;;;;1.46;100.00;147814.38;5019599;28;20026;-65
2022/12/02 08:00:30;;;;;;;54.63;13.47;;;;;;;1.40;100.00;147798.94;5031458;28;20025;-65
2022/12/02 08:02:56;;;;;;;44.10;12.47;;;;;;;1.43;100.00;147807.91;5019328;28;20029;-65
2022/12/02 08:05:23;;;;;;;58.73;13.67;;;;;;;1.46;100.00;147814.38;5017057;28;20341;-65
2022/12/02 08:07:49;;;;;;;49.07;12.73;;;;;;;1.49;100.00;147822.06;5033868;28;20667;-65
2022/12/02 08:10:14;;;;;;;26.93;8.07;;;;;;;1.41;100.00;147801.50;5023797;28;20061;-65
2022/12/02 08:12:41;;;;;;;50.97;13.67;;;;;;;1.37;100.00;147791.22;5018126;28;20040;-65
2022/12/02 08:15:08;;;;;;;67.50;16.70;;;;;;;1.44;100.00;147809.19;5026766;28;20495;-65
2022/12/02 08:17:34;;;;;;;45.80;12.23;;;;;;;1.46;100.00;147815.66;5020111;28;20482;-65
2022/12/02 08:19:59;;;;;;;65.60;16.67;;;;;;;1.48;100.00;147819.50;5023066;28;20028;-66
2022/12/02 08:22:25;;;;;;;63.93;14.80;;;;;;;1.53;100.00;147832.31;5020998;28;20132;-65
2022/12/02 08:24:50;;;;;;;40.57;11.43;;;;;;;1.51;100.00;147825.91;5011240;28;20091;-65
2022/12/02 08:27:15;;;;;;;62.40;14.27;;;;;;;1.53;100.00;147831.03;5008958;28;20107;-65
2022/12/02 08:29:41;;;;;;;62.77;15.00;;;;;;;1.51;100.00;147827.19;5011381;28;20386;-65
2022/12/02 08:32:06;;;;;;;77.67;19.10;;;;;;;1.46;100.00;147814.38;5012040;28;20496;-65
2022/12/02 08:34:31;;;;;;;59.30;13.70;;;;;;;1.44;100.00;147809.19;5017668;28;20029;-65
2022/12/02 08:36:57;;;;;;;71.17;15.23;;;;;;;1.51;100.00;147827.19;5024532;28;20075;-65
2022/12/02 08:39:22;;;;;;;53.10;14.77;;;;;;;1.50;100.00;147823.34;5021792;28;20060;-65
2022/12/02 08:41:47;;;;;;;78.63;19.07;;;;;;;1.44;100.00;147809.19;5023307;28;20030;-66
2022/12/02 08:44:13;;;;;;;64.50;16.37;;;;;;;1.47;100.00;147816.94;5021263;28;20072;-65
2022/12/02 08:46:38;;;;;;;93.60;22.93;;;;;;;1.42;100.00;147804.06;5027132;28;20075;-65
2022/12/02 08:49:07;;;;;;;65.43;18.00;;;;;;;1.47;100.00;147816.94;5019652;28;20116;-65
2022/12/02 08:51:33;;;;;;;96.93;22.93;;;;;;;1.54;100.00;147834.91;5011051;28;20559;-65
2022/12/02 08:54:00;;;;;;;95.33;24.27;;;;;;;1.55;100.00;147837.47;5015570;28;20561;-65
2022/12/02 08:56:25;;;;;;;81.00;19.93;;;;;;;1.58;100.00;147845.22;5018899;28;20040;-65
2022/12/02 08:58:50;;;;;;;86.00;21.63;;;;;;;1.59;100.00;147847.78;5016098;28;20034;-65
2022/12/02 09:01:16;;;;;;;74.87;19.07;;;;;;;1.55;100.00;147837.47;5012998;28;21199;-65
2022/12/02 09:03:41;;;;;;;92.23;24.73;;;;;;;1.60;100.00;147850.34;5012666;28;20074;-64
2022/12/02 09:06:06;;;;;;;89.80;22.50;;;;;;;1.67;100.00;147868.28;5023162;28;20041;-65
2022/12/02 09:08:32;;;;;;;90.80;24.87;;;;;;;1.63;100.00;147858.03;5026153;28;20060;-65
2022/12/02 09:10:58;;;;;;;86.77;24.37;;;;;;;1.67;100.00;147868.28;5018887;28;20030;-65
2022/12/02 09:13:23;;;;;;;72.23;19.73;;;;;;;1.70;100.00;147876.03;5018199;28;20080;-65
2022/12/02 09:15:48;;;;;;;92.17;23.77;;;;;;;1.65;100.00;147863.16;5018469;28;20025;-65
2022/12/02 09:18:14;;;;;;;78.33;20.47;;;;;;;1.70;100.00;147876.03;5017274;28;20038;-65
2022/12/02 09:20:39;;;;;;;74.07;19.40;;;;;;;1.71;100.00;147878.59;5026225;28;20039;-65
2022/12/02 09:23:04;;;;;;;71.07;19.43;;;;;;;1.76;100.00;147891.44;5014456;28;20528;-65
2022/12/02 09:25:30;;;;;;;76.77;23.90;;;;;;;1.73;100.00;147883.75;5018757;28;20036;-65
2022/12/02 09:27:55;;;;;;;64.80;18.27;;;;;;;1.76;100.00;147891.44;5020209;28;20096;-65
2022/12/02 09:30:20;;;;;;;77.70;21.47;;;;;;;1.76;100.00;147891.44;5017206;28;20025;-65
2022/12/02 09:32:46;;;;;;;82.00;22.57;;;;;;;1.80;100.00;147899.13;5013303;28;20038;-65
2022/12/02 09:35:11;;;;;;;59.20;15.23;;;;;;;1.76;100.00;147890.16;5010354;28;20029;-65
2022/12/02 09:37:37;;;;;;;68.93;18.17;;;;;;;1.73;100.00;147883.75;5016413;28;20033;-65
2022/12/02 09:40:05;;;;;;;76.90;19.43;;;;;;;1.83;100.00;147906.88;5007377;28;20032;-65
2022/12/02 09:42:31;;;;;;;71.70;19.93;;;;;;;1.94;100.00;147935.13;5022913;28;20295;-64
2022/12/02 09:44:57;;;;;;;60.07;17.80;;;;;;;1.89;100.00;147923.56;5020718;28;20048;-64
2022/12/02 09:47:24;;;;;;;63.47;17.03;;;;;;;1.92;100.00;147931.25;5018636;28;20026;-64
2022/12/02 09:49:50;;;;;;;81.27;24.33;;;;;;;1.88;100.00;147921.00;5019801;28;20029;-64
2022/12/02 09:52:26;;;;;;;90.10;25.77;;;;;;;1.94;100.00;147936.44;5020263;28;20076;-65
2022/12/02 09:55:02;;;;;;;88.43;24.30;;;;;;;1.88;100.00;147919.72;5023618;28;20428;-65
2022/12/02 09:57:30;;;;;;;70.27;21.43;;;;;;;1.95;100.00;147937.72;5024067;28;20873;-64
2022/12/02 10:00:00;;;;;;;81.73;23.37;;;;;;;1.93;100.00;147932.56;5027484;28;20446;-65
2022/12/02 10:02:31;;;;;;;71.17;22.20;;;;;;;1.84;100.00;147910.75;5034369;28;20032;-64
2022/12/02 10:05:06;;;;;;;61.87;20.23;;;;;;;1.90;100.00;147924.84;5030239;28;20809;-64
2022/12/02 10:07:31;;;;;;;64.90;19.03;;;;;;;1.94;100.00;147935.13;5026129;28;20025;-64
2022/12/02 10:09:57;;;;;;;67.60;23.73;;;;;;;1.92;100.00;147929.97;5021037;28;20033;-64
2022/12/02 10:12:22;;;;;;;72.50;23.13;;;;;;;1.91;100.00;147927.41;5026393;28;20177;-65
2022/12/02 10:14:49;;;;;;;61.57;19.33;;;;;;;1.98;100.00;147945.44;5018954;28;20022;-64
2022/12/02 10:17:17;;;;;;;83.37;25.03;;;;;;;1.95;100.00;147937.72;5026454;28;20466;-64
2022/12/02 10:19:44;;;;;;;54.90;18.23;;;;;;;2.00;100.00;147950.56;5027180;28;20030;-65
2022/12/02 10:22:19;;;;;;;67.23;20.73;;;;;;;2.03;100.00;147958.25;5021780;28;20028;-64
2022/12/02 10:24:45;;;;;;;78.93;25.70;;;;;;;1.99;100.00;147948.00;5025368;28;20053;-64
2022/12/02 10:27:31;;;;;;;71.30;22.20;;;;;;;2.09;100.00;147973.72;5032444;28;20112;-64
2022/12/02 10:30:18;;;;;;;73.60;23.03;;;;;;;2.11;100.00;147978.84;5029486;28;20500;-64
2022/12/02 10:32:59;;;;;;;72.57;23.40;;;;;;;2.15;100.00;147989.13;5023572;28;20421;-64
2022/12/02 10:35:25;;;;;;;56.65;18.55;;;;;;;2.13;100.00;147983.97;5017313;28;20138;-64
2022/12/02 10:37:51;;;;;;;75.77;26.10;;;;;;;2.23;100.00;148009.69;5032057;28;20102;-64
2022/12/02 10:40:24;;;;;;;52.23;15.60;;;;;;;2.17;100.00;147994.25;5029974;28;20421;-64
2022/12/02 10:43:10;;;;;;;49.97;16.70;;;;;;;2.11;100.00;147977.56;5031167;28;20075;-64
2022/12/02 10:45:36;;;;;;;67.47;23.17;;;;;;;2.11;100.00;147978.84;5029263;28;20144;-64
2022/12/02 10:48:16;;;;;;;67.40;21.80;;;;;;;2.11;100.00;147978.84;5020430;28;20381;-64
2022/12/02 10:50:42;;;;;;;67.10;20.70;;;;;;;2.22;100.00;148005.84;5029380;28;20021;-64
2022/12/02 10:53:16;;;;;;;78.40;25.87;;;;;;;2.15;100.00;147989.13;5026667;28;20033;-65
2022/12/02 10:55:42;;;;;;;75.23;26.37;;;;;;;2.24;100.00;148012.28;5031289;28;20113;-64
2022/12/02 10:58:29;;;;;;;62.07;20.67;;;;;;;2.24;100.00;148010.97;5029513;28;20378;-64
2022/12/02 11:00:56;;;;;;;56.03;19.87;;;;;;;2.23;100.00;148008.41;5019438;28;20031;-64
2022/12/02 11:03:22;;;;;;;45.10;16.70;;;;;;;2.17;100.00;147994.25;5012242;28;20022;-64
2022/12/02 11:05:49;;;;;;;63.63;21.77;;;;;;;2.18;100.00;147996.88;5015395;28;20024;-64
2022/12/02 11:08:17;;;;;;;68.77;24.53;;;;;;;2.17;100.00;147994.25;5031970;28;20443;-65
2022/12/02 11:10:44;;;;;;;77.83;25.77;;;;;;;2.17;100.00;147994.25;5030213;28;20037;-65
2022/12/02 11:13:12;;;;;;;77.27;27.03;;;;;;;2.34;100.00;148038.00;5029362;28;20087;-64
2022/12/02 11:15:42;;;;;;;66.37;22.63;;;;;;;2.38;100.00;148045.69;5030578;28;20026;-64
2022/12/02 11:18:11;;;;;;;70.57;23.17;;;;;;;2.44;100.00;148062.44;5014158;28;20053;-64